sensor_id;sensor_type;location;lat;lon;timestamp;noise_LAeq;noise_LA_min;noise_LA_max;noise_LA01;noise_LA95
66458;Laerm;56835;52.198;4.826;2023-02-01T00:00:02;54.24;52.62;55.82;;
66458;Laerm;56835;52.198;4.826;2023-02-01T00:00:13;54.17;52.17;56.03;;
66458;Laerm;56835;52.198;4.826;2023-02-01T00:00:24;54.22;51.97;55.66;;
66458;Laerm;56835;52.198;4.826;2023-02-01T00:00:34;54.25;52.48;55.69;;
66458;Laerm;56835;52.198;4.826;2023-02-01T00:00:45;54.16;52.21;55.71;;
66458;Laerm;56835;52.198;4.826;2023-02-01T00:00:55;54.19;52.64;55.68;;
66458;Laerm;56835;52.198;4.826;2023-02-01T00:01:06;54.27;52.39;55.49;;
66458;Laerm;56835;52.198;4.826;2023-02-01T00:01:17;54.24;51.39;55.70;;
66458;Laerm;56835;52.198;4.826;2023-02-01T00:01:27;54.20;52.39;55.65;;
66458;Laerm;56835;52.198;4.826;2023-02-01T00:01:38;54.21;52.74;55.50;;
66458;Laerm;56835;52.198;4.826;2023-02-01T00:01:48;54.22;52.40;55.68;;
66458;Laerm;56835;52.198;4.826;2023-02-01T00:01:58;54.25;52.64;55.44;;
66458;Laerm;56835;52.198;4.826;2023-02-01T00:02:09;54.22;52.55;55.79;;
66458;Laerm;56835;52.198;4.826;2023-02-01T00:02:20;54.24;52.28;55.84;;
66458;Laerm;56835;52.198;4.826;2023-02-01T00:02:30;54.21;52.39;55.67;;
66458;Laerm;56835;52.198;4.826;2023-02-01T00:02:40;54.18;52.47;55.48;;
66458;Laerm;56835;52.198;4.826;2023-02-01T00:02:51;54.31;52.70;55.43;;
66458;Laerm;56835;52.198;4.826;2023-02-01T00:03:01;54.25;51.86;55.64;;
66458;Laerm;56835;52.198;4.826;2023-02-01T00:03:11;54.22;52.28;55.81;;
66458;Laerm;56835;52.198;4.826;2023-02-01T00:03:22;54.23;52.55;55.61;;
66458;Laerm;56835;52.198;4.826;2023-02-01T00:03:33;54.24;52.70;55.56;;
66458;Laerm;56835;52.198;4.826;2023-02-01T00:03:43;54.17;52.62;55.40;;
66458;Laerm;56835;52.198;4.826;2023-02-01T00:03:54;54.23;52.58;55.49;;
66458;Laerm;56835;52.198;4.826;2023-02-01T00:04:04;54.22;52.67;55.82;;
66458;Laerm;56835;52.198;4.826;2023-02-01T00:04:14;54.21;52.62;55.62;;
66458;Laerm;56835;52.198;4.826;2023-02-01T00:04:24;54.24;52.24;55.75;;
66458;Laerm;56835;52.198;4.826;2023-02-01T00:04:35;54.27;52.70;55.66;;
66458;Laerm;56835;52.198;4.826;2023-02-01T00:04:45;54.28;52.56;55.72;;
66458;Laerm;56835;52.198;4.826;2023-02-01T00:04:55;54.32;52.48;56.07;;
66458;Laerm;56835;52.198;4.826;2023-02-01T00:05:08;54.18;52.33;55.59;;
66458;Laerm;56835;52.198;4.826;2023-02-01T00:05:19;54.21;52.60;55.76;;
66458;Laerm;56835;52.198;4.826;2023-02-01T00:05:29;54.20;52.42;55.55;;
66458;Laerm;56835;52.198;4.826;2023-02-01T00:05:39;54.16;52.82;55.41;;
66458;Laerm;56835;52.198;4.826;2023-02-01T00:05:56;54.19;52.30;55.59;;
66458;Laerm;56835;52.198;4.826;2023-02-01T00:06:07;54.22;51.36;55.64;;
66458;Laerm;56835;52.198;4.826;2023-02-01T00:06:17;54.15;52.50;55.63;;
66458;Laerm;56835;52.198;4.826;2023-02-01T00:06:27;54.25;52.29;55.95;;
66458;Laerm;56835;52.198;4.826;2023-02-01T00:06:38;54.32;52.66;55.59;;
66458;Laerm;56835;52.198;4.826;2023-02-01T00:06:48;54.23;52.86;55.82;;
66458;Laerm;56835;52.198;4.826;2023-02-01T00:06:58;54.15;52.49;55.65;;
66458;Laerm;56835;52.198;4.826;2023-02-01T00:07:11;54.18;51.63;56.09;;
66458;Laerm;56835;52.198;4.826;2023-02-01T00:07:22;54.21;52.61;55.57;;
66458;Laerm;56835;52.198;4.826;2023-02-01T00:07:32;54.17;52.68;55.78;;
66458;Laerm;56835;52.198;4.826;2023-02-01T00:07:42;54.16;52.43;55.71;;
66458;Laerm;56835;52.198;4.826;2023-02-01T00:07:52;54.20;52.57;55.40;;
66458;Laerm;56835;52.198;4.826;2023-02-01T00:08:03;54.16;52.65;55.53;;
66458;Laerm;56835;52.198;4.826;2023-02-01T00:08:13;54.17;52.55;55.53;;
66458;Laerm;56835;52.198;4.826;2023-02-01T00:08:23;54.23;52.74;55.79;;
66458;Laerm;56835;52.198;4.826;2023-02-01T00:08:34;54.21;52.04;55.64;;
66458;Laerm;56835;52.198;4.826;2023-02-01T00:08:45;54.20;52.79;55.60;;
66458;Laerm;56835;52.198;4.826;2023-02-01T00:08:55;54.24;52.09;55.68;;
66458;Laerm;56835;52.198;4.826;2023-02-01T00:09:05;54.17;52.05;55.68;;
66458;Laerm;56835;52.198;4.826;2023-02-01T00:09:16;54.24;52.59;55.64;;
66458;Laerm;56835;52.198;4.826;2023-02-01T00:09:26;54.35;52.83;55.56;;
66458;Laerm;56835;52.198;4.826;2023-02-01T00:09:36;54.28;51.87;55.85;;
66458;Laerm;56835;52.198;4.826;2023-02-01T00:09:47;54.26;52.71;55.70;;
66458;Laerm;56835;52.198;4.826;2023-02-01T00:09:57;54.25;52.70;55.77;;
66458;Laerm;56835;52.198;4.826;2023-02-01T00:10:07;54.28;52.58;55.55;;
66458;Laerm;56835;52.198;4.826;2023-02-01T00:10:18;54.25;52.77;55.66;;
66458;Laerm;56835;52.198;4.826;2023-02-01T00:10:28;54.18;52.69;55.67;;
66458;Laerm;56835;52.198;4.826;2023-02-01T00:10:38;54.20;52.37;55.47;;
66458;Laerm;56835;52.198;4.826;2023-02-01T00:10:56;54.20;52.37;55.59;;
66458;Laerm;56835;52.198;4.826;2023-02-01T00:11:08;54.18;52.45;55.70;;
66458;Laerm;56835;52.198;4.826;2023-02-01T00:11:18;54.22;52.64;55.57;;
66458;Laerm;56835;52.198;4.826;2023-02-01T00:11:29;54.16;51.98;55.49;;
66458;Laerm;56835;52.198;4.826;2023-02-01T00:11:39;54.19;52.47;55.59;;
66458;Laerm;56835;52.198;4.826;2023-02-01T00:11:49;54.19;52.47;55.75;;
66458;Laerm;56835;52.198;4.826;2023-02-01T00:12:00;54.21;52.43;55.45;;
66458;Laerm;56835;52.198;4.826;2023-02-01T00:12:11;54.18;52.20;55.53;;
66458;Laerm;56835;52.198;4.826;2023-02-01T00:12:22;54.24;52.71;55.76;;
66458;Laerm;56835;52.198;4.826;2023-02-01T00:12:32;54.28;52.91;55.56;;
66458;Laerm;56835;52.198;4.826;2023-02-01T00:12:43;54.29;52.16;55.70;;
66458;Laerm;56835;52.198;4.826;2023-02-01T00:12:53;54.22;52.29;55.51;;
66458;Laerm;56835;52.198;4.826;2023-02-01T00:13:03;54.22;52.62;55.72;;
66458;Laerm;56835;52.198;4.826;2023-02-01T00:13:13;54.18;52.43;55.43;;
66458;Laerm;56835;52.198;4.826;2023-02-01T00:13:24;54.21;52.81;55.88;;
66458;Laerm;56835;52.198;4.826;2023-02-01T00:13:35;54.22;52.38;55.74;;
66458;Laerm;56835;52.198;4.826;2023-02-01T00:13:48;54.23;52.85;55.52;;
66458;Laerm;56835;52.198;4.826;2023-02-01T00:13:58;54.17;52.22;55.74;;
66458;Laerm;56835;52.198;4.826;2023-02-01T00:14:08;54.13;51.98;55.43;;
66458;Laerm;56835;52.198;4.826;2023-02-01T00:14:19;54.12;51.71;55.40;;
66458;Laerm;56835;52.198;4.826;2023-02-01T00:14:29;54.21;52.54;55.62;;
66458;Laerm;56835;52.198;4.826;2023-02-01T00:14:39;54.19;52.36;55.65;;
66458;Laerm;56835;52.198;4.826;2023-02-01T00:14:50;54.18;52.40;55.57;;
66458;Laerm;56835;52.198;4.826;2023-02-01T00:15:00;54.25;51.96;55.83;;
66458;Laerm;56835;52.198;4.826;2023-02-01T00:15:10;54.29;52.88;55.78;;
66458;Laerm;56835;52.198;4.826;2023-02-01T00:15:21;54.27;52.51;55.81;;
66458;Laerm;56835;52.198;4.826;2023-02-01T00:15:32;54.21;52.33;56.03;;
66458;Laerm;56835;52.198;4.826;2023-02-01T00:15:43;54.13;52.48;56.05;;
66458;Laerm;56835;52.198;4.826;2023-02-01T00:15:54;54.17;52.23;55.85;;
66458;Laerm;56835;52.198;4.826;2023-02-01T00:16:15;54.20;52.85;55.80;;
66458;Laerm;56835;52.198;4.826;2023-02-01T00:16:27;54.16;52.74;55.50;;
66458;Laerm;56835;52.198;4.826;2023-02-01T00:16:38;54.18;52.37;55.82;;
66458;Laerm;56835;52.198;4.826;2023-02-01T00:16:49;54.23;52.75;55.69;;
66458;Laerm;56835;52.198;4.826;2023-02-01T00:16:59;54.13;52.02;55.98;;
66458;Laerm;56835;52.198;4.826;2023-02-01T00:17:09;54.13;52.43;55.49;;
66458;Laerm;56835;52.198;4.826;2023-02-01T00:17:19;54.23;52.46;55.66;;
66458;Laerm;56835;52.198;4.826;2023-02-01T00:17:29;54.19;52.33;55.76;;
66458;Laerm;56835;52.198;4.826;2023-02-01T00:17:40;54.14;52.25;55.74;;
66458;Laerm;56835;52.198;4.826;2023-02-01T00:17:54;54.16;52.36;55.74;;
66458;Laerm;56835;52.198;4.826;2023-02-01T00:18:04;54.19;51.83;55.74;;
66458;Laerm;56835;52.198;4.826;2023-02-01T00:18:14;54.24;52.87;55.72;;
66458;Laerm;56835;52.198;4.826;2023-02-01T00:18:25;54.21;52.45;55.52;;
66458;Laerm;56835;52.198;4.826;2023-02-01T00:18:35;54.16;52.48;55.56;;
66458;Laerm;56835;52.198;4.826;2023-02-01T00:18:46;54.13;52.24;55.51;;
66458;Laerm;56835;52.198;4.826;2023-02-01T00:18:58;54.23;52.29;55.80;;
66458;Laerm;56835;52.198;4.826;2023-02-01T00:19:12;54.12;52.05;55.50;;
66458;Laerm;56835;52.198;4.826;2023-02-01T00:19:23;54.21;52.23;55.50;;
66458;Laerm;56835;52.198;4.826;2023-02-01T00:19:33;54.15;52.19;55.50;;
66458;Laerm;56835;52.198;4.826;2023-02-01T00:19:44;54.15;52.57;55.51;;
66458;Laerm;56835;52.198;4.826;2023-02-01T00:19:54;54.17;52.46;55.76;;
66458;Laerm;56835;52.198;4.826;2023-02-01T00:20:04;54.21;52.72;55.46;;
66458;Laerm;56835;52.198;4.826;2023-02-01T00:20:15;54.13;52.12;55.54;;
66458;Laerm;56835;52.198;4.826;2023-02-01T00:20:25;54.17;52.44;55.72;;
66458;Laerm;56835;52.198;4.826;2023-02-01T00:20:35;54.20;52.21;55.38;;
66458;Laerm;56835;52.198;4.826;2023-02-01T00:20:46;54.19;52.51;55.82;;
66458;Laerm;56835;52.198;4.826;2023-02-01T00:20:57;54.23;52.51;55.60;;
66458;Laerm;56835;52.198;4.826;2023-02-01T00:21:07;54.22;52.51;56.04;;
66458;Laerm;56835;52.198;4.826;2023-02-01T00:21:19;54.17;52.21;55.63;;
66458;Laerm;56835;52.198;4.826;2023-02-01T00:21:29;54.18;52.43;55.62;;
66458;Laerm;56835;52.198;4.826;2023-02-01T00:21:40;54.16;52.22;55.56;;
66458;Laerm;56835;52.198;4.826;2023-02-01T00:21:51;54.19;52.52;55.53;;
66458;Laerm;56835;52.198;4.826;2023-02-01T00:22:01;54.23;52.25;55.49;;
66458;Laerm;56835;52.198;4.826;2023-02-01T00:22:11;54.29;52.69;56.14;;
66458;Laerm;56835;52.198;4.826;2023-02-01T00:22:21;54.21;52.30;55.65;;
66458;Laerm;56835;52.198;4.826;2023-02-01T00:22:32;54.19;52.59;55.68;;
66458;Laerm;56835;52.198;4.826;2023-02-01T00:22:42;54.23;52.05;55.46;;
66458;Laerm;56835;52.198;4.826;2023-02-01T00:22:52;54.16;52.08;55.71;;
66458;Laerm;56835;52.198;4.826;2023-02-01T00:23:02;54.21;52.62;55.47;;
66458;Laerm;56835;52.198;4.826;2023-02-01T00:23:13;54.24;52.64;55.77;;
66458;Laerm;56835;52.198;4.826;2023-02-01T00:23:23;54.15;52.53;55.55;;
66458;Laerm;56835;52.198;4.826;2023-02-01T00:23:34;54.20;52.27;55.56;;
66458;Laerm;56835;52.198;4.826;2023-02-01T00:23:45;54.23;52.42;56.01;;
66458;Laerm;56835;52.198;4.826;2023-02-01T00:23:55;54.20;51.98;55.83;;
66458;Laerm;56835;52.198;4.826;2023-02-01T00:24:06;54.30;52.62;55.71;;
66458;Laerm;56835;52.198;4.826;2023-02-01T00:24:16;54.28;52.47;55.92;;
66458;Laerm;56835;52.198;4.826;2023-02-01T00:24:26;54.21;52.51;55.82;;
66458;Laerm;56835;52.198;4.826;2023-02-01T00:24:37;54.16;52.35;55.60;;
66458;Laerm;56835;52.198;4.826;2023-02-01T00:24:47;54.23;52.66;55.57;;
66458;Laerm;56835;52.198;4.826;2023-02-01T00:24:57;54.19;52.52;55.54;;
66458;Laerm;56835;52.198;4.826;2023-02-01T00:25:07;54.25;52.34;56.25;;
66458;Laerm;56835;52.198;4.826;2023-02-01T00:25:18;54.23;52.57;55.71;;
66458;Laerm;56835;52.198;4.826;2023-02-01T00:25:28;54.19;52.31;55.77;;
66458;Laerm;56835;52.198;4.826;2023-02-01T00:25:38;54.16;52.32;55.79;;
66458;Laerm;56835;52.198;4.826;2023-02-01T00:25:49;54.21;52.25;55.51;;
66458;Laerm;56835;52.198;4.826;2023-02-01T00:26:03;54.25;52.36;55.91;;
66458;Laerm;56835;52.198;4.826;2023-02-01T00:26:15;54.19;52.36;55.47;;
66458;Laerm;56835;52.198;4.826;2023-02-01T00:26:39;54.24;52.53;55.73;;
66458;Laerm;56835;52.198;4.826;2023-02-01T00:26:49;54.22;52.25;55.69;;
66458;Laerm;56835;52.198;4.826;2023-02-01T00:27:00;54.17;52.57;55.41;;
66458;Laerm;56835;52.198;4.826;2023-02-01T00:27:10;54.21;52.04;55.55;;
66458;Laerm;56835;52.198;4.826;2023-02-01T00:27:20;54.31;52.36;55.82;;
66458;Laerm;56835;52.198;4.826;2023-02-01T00:27:31;54.24;52.50;55.65;;
66458;Laerm;56835;52.198;4.826;2023-02-01T00:27:41;54.25;51.80;56.07;;
66458;Laerm;56835;52.198;4.826;2023-02-01T00:27:51;54.31;52.62;55.79;;
66458;Laerm;56835;52.198;4.826;2023-02-01T00:28:01;54.22;52.40;55.56;;
66458;Laerm;56835;52.198;4.826;2023-02-01T00:28:12;54.24;52.39;56.06;;
66458;Laerm;56835;52.198;4.826;2023-02-01T00:28:22;54.20;52.51;55.73;;
66458;Laerm;56835;52.198;4.826;2023-02-01T00:28:33;54.23;52.08;55.73;;
66458;Laerm;56835;52.198;4.826;2023-02-01T00:28:43;54.19;52.14;55.54;;
66458;Laerm;56835;52.198;4.826;2023-02-01T00:28:54;54.18;52.24;55.84;;
66458;Laerm;56835;52.198;4.826;2023-02-01T00:29:05;54.22;52.37;55.66;;
66458;Laerm;56835;52.198;4.826;2023-02-01T00:29:17;54.27;52.39;55.73;;
66458;Laerm;56835;52.198;4.826;2023-02-01T00:29:28;54.22;52.55;55.63;;
66458;Laerm;56835;52.198;4.826;2023-02-01T00:29:38;54.28;52.52;55.60;;
66458;Laerm;56835;52.198;4.826;2023-02-01T00:29:48;54.29;52.45;55.80;;
66458;Laerm;56835;52.198;4.826;2023-02-01T00:29:58;54.30;52.45;55.91;;
66458;Laerm;56835;52.198;4.826;2023-02-01T00:30:09;54.23;52.50;55.49;;
66458;Laerm;56835;52.198;4.826;2023-02-01T00:30:19;54.27;52.46;55.77;;
66458;Laerm;56835;52.198;4.826;2023-02-01T00:30:29;54.25;52.71;55.76;;
66458;Laerm;56835;52.198;4.826;2023-02-01T00:30:40;54.28;52.27;55.90;;
66458;Laerm;56835;52.198;4.826;2023-02-01T00:30:59;54.17;51.38;55.80;;
66458;Laerm;56835;52.198;4.826;2023-02-01T00:31:10;54.25;51.98;55.62;;
66458;Laerm;56835;52.198;4.826;2023-02-01T00:31:20;54.21;52.35;55.80;;
66458;Laerm;56835;52.198;4.826;2023-02-01T00:31:30;54.15;52.55;55.48;;
66458;Laerm;56835;52.198;4.826;2023-02-01T00:31:41;54.23;52.17;55.83;;
66458;Laerm;56835;52.198;4.826;2023-02-01T00:31:51;54.24;52.10;55.77;;
66458;Laerm;56835;52.198;4.826;2023-02-01T00:32:02;54.28;52.32;55.55;;
66458;Laerm;56835;52.198;4.826;2023-02-01T00:32:12;54.28;52.60;55.72;;
66458;Laerm;56835;52.198;4.826;2023-02-01T00:32:22;54.32;52.68;55.91;;
66458;Laerm;56835;52.198;4.826;2023-02-01T00:32:33;54.31;52.36;55.68;;
66458;Laerm;56835;52.198;4.826;2023-02-01T00:32:43;54.29;52.58;55.75;;
66458;Laerm;56835;52.198;4.826;2023-02-01T00:32:53;54.21;52.19;55.98;;
66458;Laerm;56835;52.198;4.826;2023-02-01T00:33:04;54.28;52.34;55.72;;
66458;Laerm;56835;52.198;4.826;2023-02-01T00:33:14;54.21;52.32;55.83;;
66458;Laerm;56835;52.198;4.826;2023-02-01T00:33:24;54.24;51.75;55.57;;
66458;Laerm;56835;52.198;4.826;2023-02-01T00:33:35;54.20;52.61;55.54;;
66458;Laerm;56835;52.198;4.826;2023-02-01T00:33:48;54.24;52.70;55.68;;
66458;Laerm;56835;52.198;4.826;2023-02-01T00:33:58;54.26;52.19;55.52;;
66458;Laerm;56835;52.198;4.826;2023-02-01T00:34:10;54.22;52.46;55.68;;
66458;Laerm;56835;52.198;4.826;2023-02-01T00:34:22;54.25;52.26;55.98;;
66458;Laerm;56835;52.198;4.826;2023-02-01T00:34:32;54.22;52.64;55.65;;
66458;Laerm;56835;52.198;4.826;2023-02-01T00:34:42;54.25;52.20;55.60;;
66458;Laerm;56835;52.198;4.826;2023-02-01T00:34:52;54.24;52.70;55.55;;
66458;Laerm;56835;52.198;4.826;2023-02-01T00:35:03;54.22;52.22;55.51;;
66458;Laerm;56835;52.198;4.826;2023-02-01T00:35:13;54.32;52.71;55.69;;
66458;Laerm;56835;52.198;4.826;2023-02-01T00:35:24;54.39;53.00;55.71;;
66458;Laerm;56835;52.198;4.826;2023-02-01T00:35:34;54.38;52.65;55.68;;
66458;Laerm;56835;52.198;4.826;2023-02-01T00:35:44;54.24;52.34;55.92;;
66458;Laerm;56835;52.198;4.826;2023-02-01T00:35:58;54.16;52.23;55.59;;
66458;Laerm;56835;52.198;4.826;2023-02-01T00:36:08;54.29;51.86;55.88;;
66458;Laerm;56835;52.198;4.826;2023-02-01T00:36:19;54.29;52.27;55.83;;
66458;Laerm;56835;52.198;4.826;2023-02-01T00:36:29;54.30;52.43;56.07;;
66458;Laerm;56835;52.198;4.826;2023-02-01T00:36:40;54.26;52.35;55.59;;
66458;Laerm;56835;52.198;4.826;2023-02-01T00:36:51;54.26;52.84;55.86;;
66458;Laerm;56835;52.198;4.826;2023-02-01T00:37:01;54.22;52.29;55.31;;
66458;Laerm;56835;52.198;4.826;2023-02-01T00:37:11;54.22;52.52;55.50;;
66458;Laerm;56835;52.198;4.826;2023-02-01T00:37:21;54.18;52.39;55.61;;
66458;Laerm;56835;52.198;4.826;2023-02-01T00:37:33;54.27;52.87;55.71;;
66458;Laerm;56835;52.198;4.826;2023-02-01T00:37:43;54.31;52.48;55.70;;
66458;Laerm;56835;52.198;4.826;2023-02-01T00:37:53;54.29;52.44;55.85;;
66458;Laerm;56835;52.198;4.826;2023-02-01T00:38:03;54.30;52.54;55.88;;
66458;Laerm;56835;52.198;4.826;2023-02-01T00:38:14;54.30;52.59;55.67;;
66458;Laerm;56835;52.198;4.826;2023-02-01T00:38:25;54.32;52.63;55.66;;
66458;Laerm;56835;52.198;4.826;2023-02-01T00:38:36;54.32;52.75;55.88;;
66458;Laerm;56835;52.198;4.826;2023-02-01T00:38:46;54.21;52.45;55.83;;
66458;Laerm;56835;52.198;4.826;2023-02-01T00:38:57;54.26;52.59;55.87;;
66458;Laerm;56835;52.198;4.826;2023-02-01T00:39:07;54.22;52.57;55.83;;
66458;Laerm;56835;52.198;4.826;2023-02-01T00:39:18;54.27;52.36;55.86;;
66458;Laerm;56835;52.198;4.826;2023-02-01T00:39:28;54.32;52.31;55.94;;
66458;Laerm;56835;52.198;4.826;2023-02-01T00:39:38;54.28;52.68;55.60;;
66458;Laerm;56835;52.198;4.826;2023-02-01T00:39:48;54.27;52.43;55.45;;
66458;Laerm;56835;52.198;4.826;2023-02-01T00:39:59;54.25;52.66;55.73;;
66458;Laerm;56835;52.198;4.826;2023-02-01T00:40:10;54.18;52.45;55.52;;
66458;Laerm;56835;52.198;4.826;2023-02-01T00:40:20;54.24;52.28;55.95;;
66458;Laerm;56835;52.198;4.826;2023-02-01T00:40:30;54.29;53.02;55.75;;
66458;Laerm;56835;52.198;4.826;2023-02-01T00:40:40;54.31;52.70;55.70;;
66458;Laerm;56835;52.198;4.826;2023-02-01T00:40:51;54.25;52.08;55.92;;
66458;Laerm;56835;52.198;4.826;2023-02-01T00:41:02;54.33;52.82;55.73;;
66458;Laerm;56835;52.198;4.826;2023-02-01T00:41:13;54.25;52.17;55.63;;
66458;Laerm;56835;52.198;4.826;2023-02-01T00:41:24;54.34;52.74;55.62;;
66458;Laerm;56835;52.198;4.826;2023-02-01T00:41:35;54.39;52.88;55.62;;
66458;Laerm;56835;52.198;4.826;2023-02-01T00:41:45;54.32;52.56;55.71;;
66458;Laerm;56835;52.198;4.826;2023-02-01T00:41:55;54.25;52.46;55.84;;
66458;Laerm;56835;52.198;4.826;2023-02-01T00:42:06;54.35;52.52;55.99;;
66458;Laerm;56835;52.198;4.826;2023-02-01T00:42:16;54.31;52.60;55.75;;
66458;Laerm;56835;52.198;4.826;2023-02-01T00:42:26;54.28;52.40;55.69;;
66458;Laerm;56835;52.198;4.826;2023-02-01T00:42:36;54.28;52.27;55.74;;
66458;Laerm;56835;52.198;4.826;2023-02-01T00:42:47;54.26;52.74;55.73;;
66458;Laerm;56835;52.198;4.826;2023-02-01T00:42:57;54.32;52.27;55.80;;
66458;Laerm;56835;52.198;4.826;2023-02-01T00:43:07;54.31;52.48;55.74;;
66458;Laerm;56835;52.198;4.826;2023-02-01T00:43:18;54.40;52.95;55.97;;
66458;Laerm;56835;52.198;4.826;2023-02-01T00:43:30;54.40;52.83;55.86;;
66458;Laerm;56835;52.198;4.826;2023-02-01T00:43:41;54.29;52.68;55.73;;
66458;Laerm;56835;52.198;4.826;2023-02-01T00:43:51;54.30;52.59;55.80;;
66458;Laerm;56835;52.198;4.826;2023-02-01T00:44:01;54.28;52.67;55.60;;
66458;Laerm;56835;52.198;4.826;2023-02-01T00:44:12;54.27;52.12;55.73;;
66458;Laerm;56835;52.198;4.826;2023-02-01T00:44:22;54.34;52.55;55.87;;
66458;Laerm;56835;52.198;4.826;2023-02-01T00:44:32;54.27;52.75;55.41;;
66458;Laerm;56835;52.198;4.826;2023-02-01T00:44:44;54.32;52.68;55.81;;
66458;Laerm;56835;52.198;4.826;2023-02-01T00:44:54;54.37;52.35;55.58;;
66458;Laerm;56835;52.198;4.826;2023-02-01T00:45:04;54.28;51.98;55.50;;
66458;Laerm;56835;52.198;4.826;2023-02-01T00:45:15;54.34;52.88;55.87;;
66458;Laerm;56835;52.198;4.826;2023-02-01T00:45:25;54.35;52.64;55.78;;
66458;Laerm;56835;52.198;4.826;2023-02-01T00:45:36;54.31;52.08;55.66;;
66458;Laerm;56835;52.198;4.826;2023-02-01T00:45:46;54.37;52.35;55.69;;
66458;Laerm;56835;52.198;4.826;2023-02-01T00:45:57;54.38;52.46;55.98;;
66458;Laerm;56835;52.198;4.826;2023-02-01T00:46:07;54.40;52.69;56.23;;
66458;Laerm;56835;52.198;4.826;2023-02-01T00:46:18;54.35;52.83;55.73;;
66458;Laerm;56835;52.198;4.826;2023-02-01T00:46:29;54.37;52.19;56.56;;
66458;Laerm;56835;52.198;4.826;2023-02-01T00:46:39;54.42;52.80;55.65;;
66458;Laerm;56835;52.198;4.826;2023-02-01T00:46:50;54.43;52.61;55.95;;
66458;Laerm;56835;52.198;4.826;2023-02-01T00:47:00;54.51;53.03;56.18;;
66458;Laerm;56835;52.198;4.826;2023-02-01T00:47:11;54.34;53.08;55.62;;
66458;Laerm;56835;52.198;4.826;2023-02-01T00:47:21;54.33;52.79;55.93;;
66458;Laerm;56835;52.198;4.826;2023-02-01T00:47:31;54.30;52.71;55.63;;
66458;Laerm;56835;52.198;4.826;2023-02-01T00:47:41;54.38;52.48;55.69;;
66458;Laerm;56835;52.198;4.826;2023-02-01T00:47:52;54.34;52.63;56.20;;
66458;Laerm;56835;52.198;4.826;2023-02-01T00:48:02;54.32;52.33;55.65;;
66458;Laerm;56835;52.198;4.826;2023-02-01T00:48:12;54.29;52.64;55.65;;
66458;Laerm;56835;52.198;4.826;2023-02-01T00:48:22;54.42;52.84;55.90;;
66458;Laerm;56835;52.198;4.826;2023-02-01T00:48:33;54.38;52.79;55.97;;
66458;Laerm;56835;52.198;4.826;2023-02-01T00:48:43;54.33;52.07;55.94;;
66458;Laerm;56835;52.198;4.826;2023-02-01T00:48:54;54.40;52.47;56.09;;
66458;Laerm;56835;52.198;4.826;2023-02-01T00:49:04;54.35;52.59;55.88;;
66458;Laerm;56835;52.198;4.826;2023-02-01T00:49:17;54.26;52.39;55.73;;
66458;Laerm;56835;52.198;4.826;2023-02-01T00:49:27;54.43;52.72;55.53;;
66458;Laerm;56835;52.198;4.826;2023-02-01T00:49:38;54.48;52.68;56.00;;
66458;Laerm;56835;52.198;4.826;2023-02-01T00:49:48;54.45;52.61;56.07;;
66458;Laerm;56835;52.198;4.826;2023-02-01T00:49:58;54.33;52.80;55.95;;
66458;Laerm;56835;52.198;4.826;2023-02-01T00:50:09;54.41;52.65;56.03;;
66458;Laerm;56835;52.198;4.826;2023-02-01T00:50:19;54.35;52.40;55.87;;
66458;Laerm;56835;52.198;4.826;2023-02-01T00:50:29;54.30;52.48;55.66;;
66458;Laerm;56835;52.198;4.826;2023-02-01T00:50:43;54.36;52.71;55.66;;
66458;Laerm;56835;52.198;4.826;2023-02-01T00:50:53;54.32;52.50;55.91;;
66458;Laerm;56835;52.198;4.826;2023-02-01T00:51:04;54.32;52.66;55.90;;
66458;Laerm;56835;52.198;4.826;2023-02-01T00:51:16;54.39;52.52;56.18;;
66458;Laerm;56835;52.198;4.826;2023-02-01T00:51:27;54.35;52.41;55.96;;
66458;Laerm;56835;52.198;4.826;2023-02-01T00:51:38;54.30;51.84;55.88;;
66458;Laerm;56835;52.198;4.826;2023-02-01T00:51:48;54.41;52.82;55.76;;
66458;Laerm;56835;52.198;4.826;2023-02-01T00:51:59;54.37;52.63;55.68;;
66458;Laerm;56835;52.198;4.826;2023-02-01T00:52:09;54.33;52.36;55.77;;
66458;Laerm;56835;52.198;4.826;2023-02-01T00:52:19;54.32;52.56;55.67;;
66458;Laerm;56835;52.198;4.826;2023-02-01T00:52:29;54.31;52.53;55.65;;
66458;Laerm;56835;52.198;4.826;2023-02-01T00:52:40;54.27;52.35;55.60;;
66458;Laerm;56835;52.198;4.826;2023-02-01T00:52:50;54.33;52.83;55.54;;
66458;Laerm;56835;52.198;4.826;2023-02-01T00:53:00;54.33;52.28;55.86;;
66458;Laerm;56835;52.198;4.826;2023-02-01T00:53:10;54.34;51.26;55.71;;
66458;Laerm;56835;52.198;4.826;2023-02-01T00:53:21;54.32;52.68;55.84;;
66458;Laerm;56835;52.198;4.826;2023-02-01T00:53:31;54.28;52.19;55.71;;
66458;Laerm;56835;52.198;4.826;2023-02-01T00:53:42;54.30;51.63;55.86;;
66458;Laerm;56835;52.198;4.826;2023-02-01T00:53:52;54.41;52.54;55.72;;
66458;Laerm;56835;52.198;4.826;2023-02-01T00:54:03;54.37;52.39;55.72;;
66458;Laerm;56835;52.198;4.826;2023-02-01T00:54:13;54.31;52.74;55.92;;
66458;Laerm;56835;52.198;4.826;2023-02-01T00:54:23;54.43;52.47;56.00;;
66458;Laerm;56835;52.198;4.826;2023-02-01T00:54:33;54.37;52.47;55.78;;
66458;Laerm;56835;52.198;4.826;2023-02-01T00:54:45;54.46;52.78;55.70;;
66458;Laerm;56835;52.198;4.826;2023-02-01T00:54:56;54.41;52.57;55.74;;
66458;Laerm;56835;52.198;4.826;2023-02-01T00:55:06;54.41;52.65;55.55;;
66458;Laerm;56835;52.198;4.826;2023-02-01T00:55:16;54.40;52.23;55.74;;
66458;Laerm;56835;52.198;4.826;2023-02-01T00:55:26;54.40;52.51;55.95;;
66458;Laerm;56835;52.198;4.826;2023-02-01T00:55:37;54.34;52.80;55.55;;
66458;Laerm;56835;52.198;4.826;2023-02-01T00:55:47;54.32;52.75;55.71;;
66458;Laerm;56835;52.198;4.826;2023-02-01T00:55:58;54.37;52.71;55.91;;
66458;Laerm;56835;52.198;4.826;2023-02-01T00:56:08;54.38;52.82;55.77;;
66458;Laerm;56835;52.198;4.826;2023-02-01T00:56:19;54.42;52.84;55.79;;
66458;Laerm;56835;52.198;4.826;2023-02-01T00:56:29;54.35;52.72;55.87;;
66458;Laerm;56835;52.198;4.826;2023-02-01T00:56:40;54.49;52.62;55.94;;
66458;Laerm;56835;52.198;4.826;2023-02-01T00:56:50;54.36;52.38;55.85;;
66458;Laerm;56835;52.198;4.826;2023-02-01T00:57:00;54.35;52.14;55.90;;
66458;Laerm;56835;52.198;4.826;2023-02-01T00:57:11;54.37;52.82;56.00;;
66458;Laerm;56835;52.198;4.826;2023-02-01T00:57:21;54.36;52.49;55.74;;
66458;Laerm;56835;52.198;4.826;2023-02-01T00:57:31;54.46;53.04;55.85;;
66458;Laerm;56835;52.198;4.826;2023-02-01T00:57:41;54.34;52.17;56.02;;
66458;Laerm;56835;52.198;4.826;2023-02-01T00:57:52;54.40;52.18;55.88;;
66458;Laerm;56835;52.198;4.826;2023-02-01T00:58:02;54.34;52.66;55.60;;
66458;Laerm;56835;52.198;4.826;2023-02-01T00:58:13;54.32;52.43;55.79;;
66458;Laerm;56835;52.198;4.826;2023-02-01T00:58:23;54.33;52.80;55.71;;
66458;Laerm;56835;52.198;4.826;2023-02-01T00:58:35;54.36;52.72;55.77;;
66458;Laerm;56835;52.198;4.826;2023-02-01T00:58:45;54.32;52.84;55.88;;
66458;Laerm;56835;52.198;4.826;2023-02-01T00:58:56;54.37;51.89;55.72;;
66458;Laerm;56835;52.198;4.826;2023-02-01T00:59:07;54.43;52.67;56.21;;
66458;Laerm;56835;52.198;4.826;2023-02-01T00:59:17;54.35;52.26;55.57;;
66458;Laerm;56835;52.198;4.826;2023-02-01T00:59:27;54.41;52.62;55.80;;
66458;Laerm;56835;52.198;4.826;2023-02-01T00:59:38;54.37;52.55;55.77;;
66458;Laerm;56835;52.198;4.826;2023-02-01T00:59:48;54.37;51.84;55.97;;